Latest Weather Observations for Moruya Airport

IDN60901

Issued at 5:01 pm EST Tuesday 28 April 2015 (issued every 10 minutes, with the page automatically refreshed every 10 minutes)

About weather observations | Map of Canberra area stations | Latest observations for Canberra area | Other Formats
Station Details ID: 069148 Name: MORUYA AIRPORT AWS Lat: -35.90 Lon: 150.14 Height: 4.0 m
Data from the previous 72 hours. | See also: Recent months for locations in Aust Capital Territory
Date/Time
EST
Tmp

°C
App
Tmp
°C
Dew
Point
°C
Rel
Hum
%
Delta-T

°C
Wind Press
QNH
hPa
Press
MSL
hPa
Rain
since
9 am
mm
Dir
 
Spd
km/h
Gust
km/h
Spd
kts
Gust
kts
28/05:00pm 15.9 14.3 10.2 69 3.0 S 9 9 5 5 1026.1 1026.1 -
28/04:30pm 17.2 14.4 10.1 63 3.8 SSE 15 19 8 10 1025.9 1025.9 0.0
28/04:00pm 17.7 15.1 9.3 58 4.4 SSE 13 17 7 9 1025.7 1025.7 0.0
28/03:30pm 18.0 15.4 9.4 57 4.5 SE 13 19 7 10 1025.6 1025.6 0.0
28/03:00pm 18.3 15.6 8.8 54 4.9 ESE 13 17 7 9 1025.6 1025.6 0.0
28/02:30pm 17.9 14.3 8.5 54 4.8 ESE 17 20 9 11 1025.5 1025.5 0.0
28/02:00pm 18.4 15.8 9.2 55 4.8 SE 13 20 7 11 1025.4 1025.4 0.0
28/01:30pm 18.5 15.5 9.3 55 4.8 ESE 15 19 8 10 1025.6 1025.6 0.0
28/01:00pm 18.3 15.2 8.8 54 4.9 ESE 15 20 8 11 1025.9 1025.9 0.0
28/12:30pm 17.6 14.2 7.6 52 5.0 SE 15 20 8 11 1026.1 1026.1 0.0
28/12:00pm 18.0 14.8 8.3 53 4.9 SE 15 20 8 11 1026.4 1026.4 0.0
28/11:30am 18.2 15.6 7.9 51 5.2 SSW 11 17 6 9 1026.6 1026.6 0.0
28/11:00am 17.9 14.2 7.9 52 5.1 S 17 24 9 13 1026.8 1026.8 0.0
28/10:30am 17.1 14.5 7.7 54 4.7 SW 11 15 6 8 1026.9 1026.9 0.0
28/10:00am 16.3 14.5 9.3 63 3.6 WSW 9 15 5 8 1026.9 1026.9 0.0
28/09:30am 14.7 12.7 8.6 67 3.1 WSW 9 13 5 7 1026.9 1026.9 0.0
28/09:00am 13.4 11.4 8.7 73 2.3 WSW 9 13 5 7 1026.8 1026.8 0.0
28/08:30am 12.0 10.0 8.5 79 1.7 W 9 13 5 7 1026.6 1026.6 0.0
28/08:00am 10.5 8.3 7.9 84 1.2 WSW 9 13 5 7 1026.2 1026.2 0.0
28/07:06am 7.7 5.3 7.1 96 0.3 W 9 13 5 7 1025.7 1025.7 0.0
28/07:00am 7.5 5.1 7.1 97 0.2 W 9 13 5 7 1025.7 1025.7 0.0
28/06:49am 7.2 4.8 7.1 99 0.0 W 9 13 5 7 1025.6 1025.6 0.0
28/06:30am 6.5 4.0 6.5 100 0.0 W 9 13 5 7 1025.4 1025.4 0.0
28/05:30am 6.2 4.0 6.2 100 0.0 WSW 7 9 4 5 1024.7 1024.7 0.0
28/05:00am 5.6 3.8 5.6 100 0.0 WSW 4 9 2 5 1024.5 1024.5 0.0
28/04:30am 6.4 4.2 6.4 100 0.0 WSW 7 9 4 5 1024.0 1024.0 0.0
28/04:00am 6.2 4.0 6.2 100 0.0 WSW 7 9 4 5 1023.7 1023.7 0.0
28/03:30am 6.8 4.7 6.7 99 0.0 WSW 7 11 4 6 1023.5 1023.5 0.0
28/03:10am 6.7 4.2 6.7 100 0.0 W 9 13 5 7 1023.4 1023.4 0.0
28/03:00am 6.4 3.8 6.3 99 0.0 WSW 9 11 5 6 1023.4 1023.4 0.0
28/02:52am 6.4 3.8 6.1 98 0.1 SW 9 11 5 6 1023.3 1023.3 0.0
28/02:39am 6.6 4.4 6.2 97 0.2 W 7 11 4 6 1023.3 1023.3 0.0
28/02:30am 6.9 4.8 6.5 97 0.2 W 7 9 4 5 1023.4 1023.4 0.0
28/02:25am 6.9 4.7 6.3 96 0.3 W 7 9 4 5 1023.4 1023.4 0.0
28/02:00am 7.8 5.7 6.7 93 0.5 WSW 7 11 4 6 1023.4 1023.4 0.0
28/01:30am 8.0 5.6 6.9 93 0.5 WSW 9 11 5 6 1023.5 1023.5 0.0
28/01:00am 8.4 6.0 7.0 91 0.6 WSW 9 13 5 7 1023.4 1023.4 0.0
28/12:30am 8.7 6.2 6.5 86 1.0 WSW 9 11 5 6 1023.3 1023.3 0.0
 
Date/Time
EST
Tmp

°C
App
Tmp
°C
Dew
Point
°C
Rel
Hum
%
Delta-T

°C
Wind Press
QNH
hPa
Press
MSL
hPa
Rain
since
9 am
mm
Dir
 
Spd
km/h
Gust
km/h
Spd
kts
Gust
kts
27/11:30pm 9.6 6.8 7.0 84 1.2 WSW 11 13 6 7 1023.3 1023.3 0.0
27/11:00pm 9.1 6.3 7.1 87 0.9 WSW 11 13 6 7 1023.2 1023.2 0.0
27/10:30pm 9.5 7.5 6.9 84 1.2 W 7 13 4 7 1023.1 1023.1 0.0
27/10:00pm 10.3 7.9 7.2 81 1.5 W 9 13 5 7 1023.1 1023.1 0.0
27/09:30pm 10.5 8.1 7.2 80 1.6 W 9 15 5 8 1023.0 1023.0 0.0
27/09:00pm 10.6 7.9 7.5 81 1.5 W 11 15 6 8 1022.7 1022.7 0.0
27/08:00pm 11.2 9.4 9.5 89 0.9 W 9 13 5 7 1022.2 1022.2 0.0
27/07:30pm 12.2 10.5 9.9 86 1.2 WSW 9 13 5 7 1021.8 1021.8 0.0
27/07:00pm 13.6 11.8 10.8 83 1.5 SSW 11 15 6 8 1021.5 1021.5 0.0
27/06:30pm 12.3 10.6 9.9 85 1.2 SW 9 13 5 7 1021.0 1021.0 0.0
27/05:30pm 13.1 11.3 9.4 78 1.9 SW 9 9 5 5 1020.2 1020.2 0.0
27/05:00pm 15.7 13.7 8.7 63 3.6 SSW 9 11 5 6 1019.9 1019.8 0.0
27/04:30pm 17.8 14.8 7.5 51 5.2 SSW 13 19 7 10 1019.5 1019.4 0.0
27/04:00pm 18.3 16.0 7.4 49 5.5 SSW 9 20 5 11 1019.2 1019.1 0.0
27/03:30pm 18.8 15.4 7.6 48 5.7 SSW 15 20 8 11 1018.9 1018.8 0.0
27/03:00pm 19.3 16.8 8.0 48 5.8 S 11 17 6 9 1018.8 1018.7 0.0
27/02:30pm 19.3 16.2 7.4 46 6.0 SSW 13 19 7 10 1018.6 1018.5 0.0
27/02:00pm 19.1 15.5 6.6 44 6.2 S 15 24 8 13 1018.4 1018.3 0.0
27/01:30pm 18.4 14.1 7.2 48 5.6 SW 19 24 10 13 1018.3 1018.2 0.0
27/01:00pm 18.2 14.3 7.3 49 5.5 S 17 24 9 13 1018.3 1018.2 0.0
27/12:30pm 18.2 14.2 6.7 47 5.7 SW 17 24 9 13 1018.5 1018.4 0.0
27/12:00pm 18.3 14.5 7.7 50 5.4 SW 17 26 9 14 1018.7 1018.6 0.0
27/11:30am 17.8 13.2 6.7 48 5.5 SW 20 30 11 16 1018.9 1018.8 0.0
27/11:00am 17.4 11.7 6.9 50 5.2 SW 26 37 14 20 1019.0 1018.9 0.0
27/10:30am 17.3 13.4 7.1 51 5.1 SW 17 26 9 14 1019.1 1019.0 0.0
27/10:00am 16.6 12.9 7.8 56 4.4 WSW 17 28 9 15 1019.0 1018.9 0.0
27/09:30am 15.6 13.5 8.4 62 3.6 WSW 9 17 5 9 1019.0 1018.9 0.0
27/09:00am 13.3 12.3 8.8 74 2.3 SW 4 7 2 4 1018.8 1018.7 1.0
27/08:30am 11.1 10.1 8.7 85 1.2 SW 4 7 2 4 1018.6 1018.5 1.0
27/08:00am 9.5 8.1 9.5 100 0.0 SW 7 11 4 6 1018.2 1018.1 1.0
27/07:30am 7.8 6.9 7.8 100 0.0 WNW 2 6 1 3 1017.8 1017.7 1.0
27/07:28am 7.7 7.2 7.7 100 0.0 CALM 0 6 0 3 1017.8 1017.7 1.0
27/07:16am 7.1 6.0 7.1 100 0.0 W 2 7 1 4 1017.6 1017.5 1.0
27/07:00am 5.7 3.4 5.7 100 0.0 W 7 11 4 6 1017.5 1017.4 1.0
27/06:30am 4.3 1.9 4.3 100 0.0 W 6 9 3 5 1017.3 1017.2 1.0
27/06:00am 4.2 2.9 4.2 100 0.0 CALM 0 0 0 0 1017.1 1017.0 1.0
27/05:30am 4.1 2.8 4.1 100 0.0 CALM 0 0 0 0 1016.7 1016.6 1.0
27/05:00am 4.6 2.6 4.6 100 0.0 WSW 4 7 2 4 1016.6 1016.5 1.0
27/04:30am 5.1 3.6 5.1 100 0.0 WNW 2 9 1 5 1016.5 1016.4 1.0
27/04:00am 5.6 4.6 5.6 100 0.0 CALM 0 6 0 3 1016.5 1016.4 1.0
27/03:30am 6.0 3.4 6.0 100 0.0 W 9 11 5 6 1016.2 1016.1 1.0
27/03:00am 5.6 3.3 5.6 100 0.0 W 7 9 4 5 1016.1 1016.0 1.0
27/02:30am 6.4 4.2 6.4 100 0.0 WSW 7 11 4 6 1016.1 1016.0 1.0
27/02:00am 6.5 4.6 6.5 100 0.0 WNW 6 9 3 5 1016.1 1016.0 1.0
27/01:30am 7.1 4.9 6.4 95 0.3 WNW 7 9 4 5 1016.2 1016.1 1.0
27/01:00am 8.7 5.9 7.0 89 0.8 SW 11 20 6 11 1016.2 1016.1 1.0
27/12:30am 6.5 4.4 6.5 100 0.0 SW 7 11 4 6 1016.2 1016.1 1.0
27/12:00am 6.6 4.7 6.6 100 0.0 W 6 9 3 5 1016.1 1016.0 1.0
 
Date/Time
EST
Tmp

°C
App
Tmp
°C
Dew
Point
°C
Rel
Hum
%
Delta-T

°C
Wind Press
QNH
hPa
Press
MSL
hPa
Rain
since
9 am
mm
Dir
 
Spd
km/h
Gust
km/h
Spd
kts
Gust
kts
26/11:30pm 7.1 5.1 7.1 100 0.0 WNW 7 11 4 6 1016.0 1015.9 1.0
26/11:00pm 7.7 5.7 7.1 96 0.3 WSW 7 11 4 6 1016.0 1015.9 1.0
26/10:30pm 8.0 5.6 7.2 95 0.4 WSW 9 15 5 8 1016.2 1016.1 1.0
26/10:00pm 8.7 7.0 8.3 97 0.2 W 7 7 4 4 1016.4 1016.3 1.0
26/09:30pm 9.8 7.4 8.6 92 0.6 SW 11 13 6 7 1016.1 1016.0 1.0
26/09:00pm 9.8 7.7 8.4 91 0.7 SW 9 11 5 6 1016.1 1016.0 1.0
26/08:30pm 11.5 9.5 8.5 82 1.5 SW 9 11 5 6 1015.8 1015.7 1.0
26/08:00pm 13.1 10.7 8.8 75 2.2 SSE 11 13 6 7 1015.3 1015.2 1.0
26/07:30pm 13.8 10.5 8.0 68 2.9 SW 15 24 8 13 1014.9 1014.8 1.0
26/07:00pm 13.9 11.7 10.7 81 1.7 SSW 13 20 7 11 1014.6 1014.5 1.0
26/06:30pm 14.0 12.2 12.2 89 1.0 S 13 17 7 9 1013.9 1013.8 1.0
26/06:00pm 13.5 12.2 11.4 87 1.1 SW 9 11 5 6 1013.3 1013.2 1.0
26/05:30pm 14.6 14.0 11.7 83 1.6 SW 6 7 3 4 1012.6 1012.5 1.0
26/05:00pm 16.8 15.2 11.5 71 2.9 SSW 11 17 6 9 1012.3 1012.2 1.0
26/04:30pm 17.7 16.3 12.2 70 3.0 S 11 13 6 7 1011.9 1011.8 1.0
26/04:00pm 18.7 16.3 11.5 63 3.9 SSW 15 22 8 12 1011.6 1011.5 1.0
26/03:30pm 19.1 16.0 11.7 62 4.1 S 19 26 10 14 1011.2 1011.1 1.0
26/03:00pm 18.8 14.8 11.9 64 3.8 SSW 24 37 13 20 1010.9 1010.8 1.0
26/02:30pm 18.6 15.6 12.4 67 3.5 SSW 20 32 11 17 1010.8 1010.7 1.0
26/02:00pm 19.2 16.6 13.2 68 3.4 S 19 28 10 15 1010.4 1010.3 1.0
26/01:30pm 18.2 15.4 12.6 70 3.1 SSW 19 26 10 14 1010.2 1010.1 1.0
26/01:00pm 18.1 14.6 12.3 69 3.2 SSW 22 33 12 18 1009.8 1009.7 0.8
26/12:30pm 17.6 13.8 12.3 71 2.9 SW 24 33 13 18 1009.8 1009.7 0.8
26/12:00pm 17.2 13.3 12.1 72 2.8 SW 24 33 13 18 1009.8 1009.7 0.8
26/11:30am 16.6 12.9 12.6 77 2.2 SSW 24 35 13 19 1009.8 1009.7 0.8
26/11:00am 15.8 12.6 13.1 84 1.5 SW 22 33 12 18 1009.8 1009.7 0.8
26/10:31am 14.6 12.1 13.5 93 0.6 SW 19 32 10 17 1009.7 1009.6 0.8
26/10:30am 14.6 11.9 13.5 93 0.6 SW 20 32 11 17 1009.7 1009.6 0.8
26/10:19am 14.4 11.9 13.4 94 0.6 SW 19 30 10 16 1009.6 1009.5 0.8
26/10:00am 13.9 12.2 13.6 98 0.2 SW 15 24 8 13 1009.7 1009.6 0.8
26/09:30am 13.9 11.5 13.9 100 0.0 SW 19 26 10 14 1009.4 1009.3 0.8
26/09:00am 13.8 10.4 13.6 99 0.1 SW 24 33 13 18 1009.2 1009.1 15.2
26/08:30am 14.3 10.7 12.9 91 0.8 SW 24 32 13 17 1008.7 1008.6 14.2
26/08:00am 12.6 11.3 12.6 100 0.0 WSW 11 17 6 9 1008.4 1008.3 14.2
26/07:30am 12.0 10.9 12.0 100 0.0 WSW 9 11 5 6 1008.1 1008.0 14.2
26/07:00am 11.6 10.4 11.6 100 0.0 W 9 15 5 8 1007.6 1007.5 14.2
26/06:30am 11.7 10.5 11.7 100 0.0 WSW 9 13 5 7 1007.2 1007.1 14.2
26/06:08am 11.7 10.5 11.7 100 0.0 W 9 17 5 9 1006.8 1006.7 14.0
26/06:00am 11.6 10.4 11.6 100 0.0 W 9 17 5 9 1006.8 1006.7 14.0
26/05:54am 11.6 10.0 11.6 100 0.0 W 11 15 6 8 1006.7 1006.6 14.0
26/05:30am 11.4 10.1 11.4 100 0.0 W 9 15 5 8 1006.6 1006.5 14.0
26/05:00am 11.4 10.1 11.4 100 0.0 W 9 13 5 7 1006.6 1006.5 14.0
26/04:30am 11.5 9.9 11.5 100 0.0 WSW 11 15 6 8 1006.7 1006.6 14.0
26/04:00am 11.5 9.9 11.5 100 0.0 W 11 17 6 9 1006.9 1006.8 13.8
26/03:30am 11.5 10.3 11.5 100 0.0 W 9 13 5 7 1006.9 1006.8 13.4
26/03:00am 11.6 10.4 11.6 100 0.0 W 9 13 5 7 1007.0 1006.9 12.8
26/02:30am 11.5 10.3 11.5 100 0.0 W 9 11 5 6 1007.3 1007.2 12.6
26/02:00am 11.5 10.3 11.5 100 0.0 WNW 9 13 5 7 1007.6 1007.5 12.6
26/01:30am 11.6 10.4 11.6 100 0.0 W 9 13 5 7 1007.9 1007.8 12.4
26/01:00am 11.6 10.4 11.6 100 0.0 WSW 9 11 5 6 1007.9 1007.8 12.4
26/12:30am 11.7 10.5 11.7 100 0.0 W 9 13 5 7 1008.1 1008.0 12.4
26/12:00am 11.6 10.4 11.6 100 0.0 W 9 15 5 8 1008.2 1008.1 12.4
 
Date/Time
EST
Tmp

°C
App
Tmp
°C
Dew
Point
°C
Rel
Hum
%
Delta-T

°C
Wind Press
QNH
hPa
Press
MSL
hPa
Rain
since
9 am
mm
Dir
 
Spd
km/h
Gust
km/h
Spd
kts
Gust
kts
25/11:30pm 11.4 9.8 11.4 100 0.0 WSW 11 17 6 9 1008.2 1008.1 12.4
25/11:00pm 11.4 9.4 11.4 100 0.0 W 13 17 7 9 1008.4 1008.3 12.4
25/10:30pm 11.3 9.6 11.3 100 0.0 W 11 17 6 9 1008.7 1008.6 12.4
25/10:00pm 11.3 9.6 11.3 100 0.0 W 11 15 6 8 1008.8 1008.7 12.4
25/09:30pm 11.3 10.0 11.3 100 0.0 WSW 9 15 5 8 1009.0 1008.9 12.4
25/09:00pm 11.3 10.0 11.3 100 0.0 W 9 15 5 8 1009.0 1008.9 12.4
25/08:30pm 11.3 9.6 11.3 100 0.0 WSW 11 15 6 8 1009.1 1009.0 12.4
25/08:00pm 11.2 10.8 11.2 100 0.0 W 4 9 2 5 1008.7 1008.6 12.4
25/07:55pm 11.1 10.3 11.1 100 0.0 WNW 6 9 3 5 1008.7 1008.6 12.4
25/07:37pm 11.1 10.1 11.1 100 0.0 W 7 11 4 6 1008.5 1008.4 12.4
25/07:30pm 11.1 9.8 11.1 100 0.0 WSW 9 11 5 6 1008.5 1008.4 12.4
25/07:00pm 11.1 9.8 11.1 100 0.0 WSW 9 15 5 8 1007.8 1007.7 12.4
25/06:30pm 11.3 10.4 11.3 100 0.0 WNW 7 9 4 5 1007.6 1007.5 12.4
25/06:00pm 11.1 11.5 11.1 100 0.0 CALM 0 0 0 0 1007.6 1007.5 12.4
25/05:30pm 11.4 10.5 11.4 100 0.0 WNW 7 13 4 7 1007.7 1007.6 12.4

Latest Capital City Observations: Canberra | Sydney | Melbourne | Brisbane | Adelaide | Perth | Hobart | Darwin

Other Formats:

Comma delimited format used in spreadsheet applications
http://www.bom.gov.au/fwo/IDN60903/IDN60903.95937.axf

JavaScript Object Notation format (JSON) in row-major order
http://www.bom.gov.au/fwo/IDN60903/IDN60903.95937.json